createdAt,value
2023-03-07T00:01:08.981Z,100156.63
2023-03-07T00:03:38.869Z,100161.38
2023-03-07T00:06:08.859Z,100156.69
2023-03-07T00:08:37.703Z,100155.09
2023-03-07T00:11:07.507Z,100145.41
2023-03-07T00:13:36.768Z,100140.66
2023-03-07T00:16:08.760Z,100143.88
2023-03-07T00:18:37.165Z,100143.31
2023-03-07T00:21:07.229Z,100142.34
2023-03-07T00:23:35.979Z,100141.19
2023-03-07T00:26:05.853Z,100137.41
2023-03-07T00:28:33.916Z,100134.38
2023-03-07T00:31:02.650Z,100134.88
2023-03-07T00:33:31.916Z,100130.38
2023-03-07T00:36:01.231Z,100124.91
2023-03-07T00:38:32.435Z,100118.31
2023-03-07T00:41:01.861Z,100116.81
2023-03-07T00:43:30.434Z,100113.41
2023-03-07T00:45:59.467Z,100114.06
2023-03-07T00:48:28.080Z,100112.19
2023-03-07T00:50:57.613Z,100109.56
2023-03-07T00:53:26.094Z,100118.91
2023-03-07T00:55:59.586Z,100118.72
2023-03-07T00:58:27.933Z,100115.50
2023-03-07T01:00:55.934Z,100110.50
2023-03-07T01:03:24.734Z,100111.34
2023-03-07T01:05:52.982Z,100115.91
2023-03-07T01:08:23.329Z,100112.53
2023-03-07T01:10:51.408Z,100099.97
2023-03-07T01:13:20.632Z,100098.13
2023-03-07T01:15:48.351Z,100091.44
2023-03-07T01:18:16.105Z,100093.09
2023-03-07T01:20:44.122Z,100090.09
2023-03-07T01:23:11.893Z,100097.44
2023-03-07T01:25:42.676Z,100090.81
2023-03-07T01:28:13.801Z,100089.88
2023-03-07T01:30:41.605Z,100087.34
2023-03-07T01:33:10.781Z,100084.47
2023-03-07T01:35:39.596Z,100080.88
2023-03-07T01:38:07.919Z,100082.75
2023-03-07T01:40:35.756Z,100087.13
2023-03-07T01:43:28.135Z,100076.38
2023-03-07T01:46:34.996Z,100086.53
2023-03-07T01:49:07.674Z,100073.72
2023-03-07T01:51:37.496Z,100078.13
2023-03-07T01:54:07.630Z,100070.66
2023-03-07T01:56:37.597Z,100062.22
2023-03-07T01:59:07.551Z,100066.84
2023-03-07T02:01:37.169Z,100054.69
2023-03-07T02:04:12.760Z,100051.97
2023-03-07T02:06:40.825Z,100060.81
2023-03-07T02:09:13.327Z,100061.59
2023-03-07T02:11:42.940Z,100052.41
2023-03-07T02:14:12.055Z,100052.66
2023-03-07T02:16:40.675Z,100057.91
2023-03-07T02:19:23.120Z,100048.66
2023-03-07T02:22:00.449Z,100041.97
2023-03-07T02:24:33.594Z,100032.25
2023-03-07T02:27:02.707Z,100029.66
2023-03-07T02:29:30.481Z,100022.34
2023-03-07T02:31:58.241Z,100017.31
2023-03-07T02:34:27.821Z,100016.88
2023-03-07T02:37:00.194Z,100010.75
2023-03-07T02:39:30.470Z,100002.56
2023-03-07T02:42:01.668Z,100001.19
2023-03-07T02:44:30.939Z,100012.69
2023-03-07T02:46:58.652Z,100010.66
2023-03-07T02:49:26.422Z,100008.47
2023-03-07T02:51:57.545Z,100006.53
2023-03-07T02:54:26.137Z,99997.00
2023-03-07T02:56:54.376Z,99997.47
2023-03-07T02:59:22.536Z,99997.25
2023-03-07T03:01:51.803Z,99991.53
2023-03-07T03:04:19.542Z,99984.34
2023-03-07T03:06:47.428Z,99978.94
2023-03-07T03:09:15.196Z,99976.53
2023-03-07T03:11:43.003Z,99969.13
2023-03-07T03:14:10.838Z,99971.56
2023-03-07T03:16:39.740Z,99963.09
2023-03-07T03:19:08.904Z,99954.56
2023-03-07T03:21:36.753Z,99949.38
2023-03-07T03:24:08.089Z,99941.59
2023-03-07T03:26:36.246Z,99941.34
2023-03-07T03:29:05.141Z,99937.03
2023-03-07T03:31:33.630Z,99936.97
2023-03-07T03:34:01.393Z,99935.22
2023-03-07T03:36:30.459Z,99923.38
2023-03-07T03:38:59.440Z,99927.53
2023-03-07T03:41:27.658Z,99920.59
2023-03-07T03:43:55.545Z,99926.38
2023-03-07T03:46:23.322Z,99920.97
2023-03-07T03:48:54.651Z,99924.72
2023-03-07T03:51:23.723Z,99926.50
2023-03-07T03:53:53.106Z,99925.63
2023-03-07T03:56:23.048Z,99923.03
2023-03-07T03:58:52.620Z,99919.25
2023-03-07T04:01:21.988Z,99923.63
2023-03-07T04:03:52.048Z,99917.50
2023-03-07T04:06:21.592Z,99913.66
2023-03-07T04:08:49.981Z,99914.78
2023-03-07T04:11:19.460Z,99916.72
2023-03-07T04:13:47.478Z,99919.22
2023-03-07T04:16:15.593Z,99910.72
2023-03-07T04:18:43.349Z,99903.38
2023-03-07T04:21:12.024Z,99895.19
2023-03-07T04:23:40.194Z,99898.25
2023-03-07T04:26:09.650Z,99892.25
2023-03-07T04:28:44.982Z,99897.28
2023-03-07T04:31:14.085Z,99878.19
2023-03-07T04:33:42.561Z,99875.72
2023-03-07T04:36:10.818Z,99870.06
2023-03-07T04:38:40.458Z,99874.03
2023-03-07T04:41:09.095Z,99867.09
2023-03-07T04:43:38.181Z,99862.88
2023-03-07T04:46:06.385Z,99858.34
2023-03-07T04:48:34.151Z,99861.84
2023-03-07T04:51:01.975Z,99864.13
2023-03-07T04:53:29.846Z,99858.34
2023-03-07T04:55:59.653Z,99854.69
2023-03-07T04:58:27.647Z,99867.63
2023-03-07T05:00:57.874Z,99853.09
2023-03-07T05:03:26.795Z,99857.75
2023-03-07T05:05:55.018Z,99849.34
2023-03-07T05:08:23.452Z,99858.31
2023-03-07T05:10:51.159Z,99857.31
2023-03-07T05:13:18.964Z,99861.66
2023-03-07T05:15:52.614Z,99869.38
2023-03-07T05:18:22.349Z,99873.63
2023-03-07T05:20:50.376Z,99873.28
2023-03-07T05:23:18.322Z,99876.81
2023-03-07T05:25:46.915Z,99873.16
2023-03-07T05:28:14.817Z,99878.97
2023-03-07T05:30:42.544Z,99881.22
2023-03-07T05:33:10.380Z,99876.53
2023-03-07T05:35:39.597Z,99872.69
2023-03-07T05:38:07.770Z,99879.75
2023-03-07T05:40:35.567Z,99879.81
2023-03-07T05:43:03.891Z,99885.28
2023-03-07T05:45:31.771Z,99876.16
2023-03-07T05:47:59.696Z,99876.41
2023-03-07T05:50:27.473Z,99878.88
2023-03-07T05:52:56.663Z,99868.31
2023-03-07T05:55:24.378Z,99868.41
2023-03-07T05:57:52.225Z,99870.69
2023-03-07T06:00:21.186Z,99867.69
2023-03-07T06:02:49.000Z,99867.94
2023-03-07T06:05:17.095Z,99860.13
2023-03-07T06:07:45.081Z,99865.59
2023-03-07T06:10:14.646Z,99868.47
2023-03-07T06:12:42.520Z,99860.28
2023-03-07T06:15:11.123Z,99861.84
2023-03-07T06:17:40.681Z,99863.22
2023-03-07T06:20:09.877Z,99854.59
2023-03-07T06:22:38.719Z,99852.94
2023-03-07T06:25:07.586Z,99855.03
2023-03-07T06:27:37.908Z,99849.81
2023-03-07T06:30:07.605Z,99849.75
2023-03-07T06:32:35.445Z,99858.56
2023-03-07T06:35:03.379Z,99852.16
2023-03-07T06:37:31.536Z,99846.53
2023-03-07T06:39:59.312Z,99848.22
2023-03-07T06:42:27.073Z,99840.88
2023-03-07T06:44:56.204Z,99847.13
2023-03-07T06:47:23.981Z,99840.69
2023-03-07T06:49:52.276Z,99838.88
2023-03-07T06:52:20.581Z,99830.72
2023-03-07T06:54:48.364Z,99833.31
2023-03-07T06:57:16.272Z,99827.59
2023-03-07T06:59:44.019Z,99820.41
2023-03-07T07:02:15.843Z,99818.66
2023-03-07T07:04:43.697Z,99811.47
2023-03-07T07:07:11.422Z,99803.38
2023-03-07T07:09:39.246Z,99799.38
2023-03-07T07:12:07.722Z,99806.53
2023-03-07T07:14:35.507Z,99797.34
2023-03-07T07:17:03.356Z,99799.75
2023-03-07T07:19:32.549Z,99793.34
2023-03-07T07:22:00.393Z,99797.94
2023-03-07T07:24:28.420Z,99795.94
2023-03-07T07:26:56.733Z,99803.19
2023-03-07T07:29:24.637Z,99810.44
2023-03-07T07:31:52.565Z,99806.34
2023-03-07T07:34:20.435Z,99818.97
2023-03-07T07:36:49.555Z,99816.06
2023-03-07T07:39:17.730Z,99817.84
2023-03-07T07:41:46.330Z,99816.31
2023-03-07T07:44:14.098Z,99811.69
2023-03-07T07:46:41.873Z,99803.56
2023-03-07T07:49:09.686Z,99800.53
2023-03-07T07:51:37.547Z,99785.38
2023-03-07T07:54:06.656Z,99805.75
2023-03-07T07:56:34.432Z,99804.56
2023-03-07T07:59:02.128Z,99805.56
2023-03-07T08:01:29.941Z,99791.78
2023-03-07T08:03:57.721Z,99793.25
2023-03-07T08:06:27.141Z,99791.66
2023-03-07T08:08:55.755Z,99789.19
2023-03-07T08:11:25.022Z,99795.91
2023-03-07T08:13:52.838Z,99803.44
2023-03-07T08:16:22.698Z,99810.19
2023-03-07T08:18:51.796Z,99816.41
2023-03-07T08:21:19.971Z,99814.84
2023-03-07T08:23:47.801Z,99818.25
2023-03-07T08:26:15.644Z,99836.53
2023-03-07T08:28:44.824Z,99833.56
2023-03-07T08:31:14.815Z,99827.25
2023-03-07T08:33:43.049Z,99834.94
2023-03-07T08:36:11.099Z,99830.91
2023-03-07T08:38:38.936Z,99827.75
2023-03-07T08:41:08.491Z,99831.81
2023-03-07T08:43:39.151Z,99822.25
2023-03-07T08:46:08.524Z,99834.03
2023-03-07T08:48:36.373Z,99844.00
2023-03-07T08:51:09.123Z,99844.47
2023-03-07T08:53:38.365Z,99845.22
2023-03-07T08:56:09.666Z,99835.06
2023-03-07T08:58:38.073Z,99832.53
2023-03-07T09:01:07.285Z,99829.94
2023-03-07T09:03:37.098Z,99831.47
2023-03-07T09:06:06.339Z,99827.78
2023-03-07T09:08:34.118Z,99817.41
2023-03-07T09:11:03.574Z,99817.97
2023-03-07T09:13:35.915Z,99816.00
2023-03-07T09:16:06.711Z,99813.53
2023-03-07T09:18:36.288Z,99814.47
2023-03-07T09:21:05.351Z,99809.22
2023-03-07T09:23:33.348Z,99805.50
2023-03-07T09:26:01.911Z,99809.41
2023-03-07T09:28:29.653Z,99808.03
2023-03-07T09:30:57.347Z,99813.00
2023-03-07T09:33:25.104Z,99812.06
2023-03-07T09:35:54.219Z,99807.16
2023-03-07T09:38:21.981Z,99809.56
2023-03-07T09:40:49.905Z,99810.16
2023-03-07T09:43:21.080Z,99818.28
2023-03-07T09:46:01.319Z,99810.50
2023-03-07T09:48:49.786Z,99809.09
2023-03-07T09:51:22.689Z,99817.09
2023-03-07T09:53:54.202Z,99813.13
2023-03-07T09:56:25.743Z,99810.81
2023-03-07T09:59:04.878Z,99803.97
2023-03-07T10:01:36.814Z,99808.19
2023-03-07T10:04:06.901Z,99802.47
2023-03-07T10:06:40.475Z,99803.91
2023-03-07T10:09:14.168Z,99806.84
2023-03-07T10:11:59.372Z,99808.28
2023-03-07T10:14:42.061Z,99805.13
2023-03-07T10:17:20.448Z,99799.59
2023-03-07T10:19:51.208Z,99797.53
2023-03-07T10:22:32.476Z,99803.03
2023-03-07T10:25:17.757Z,99795.63
2023-03-07T10:27:48.028Z,99806.78
2023-03-07T10:30:18.936Z,99809.97
2023-03-07T10:32:48.393Z,99809.81
2023-03-07T10:35:20.930Z,99815.94
2023-03-07T10:37:52.567Z,99826.81
2023-03-07T10:40:26.364Z,99817.03
2023-03-07T10:42:55.218Z,99813.59
2023-03-07T10:45:23.263Z,99817.59
2023-03-07T10:47:50.971Z,99798.84
2023-03-07T10:50:26.009Z,99793.03
2023-03-07T10:52:58.644Z,99803.63
2023-03-07T10:55:35.456Z,99795.69
2023-03-07T10:58:23.787Z,99788.19
2023-03-07T11:01:15.204Z,99793.84
2023-03-07T11:03:53.589Z,99801.06
2023-03-07T11:06:37.635Z,99802.06
2023-03-07T11:09:31.521Z,99802.56
2023-03-07T11:12:00.200Z,99814.16
2023-03-07T11:14:30.913Z,99815.13
2023-03-07T11:17:00.555Z,99816.28
2023-03-07T11:19:33.647Z,99804.38
2023-03-07T11:22:04.329Z,99800.81
2023-03-07T11:24:38.420Z,99812.78
2023-03-07T11:27:07.026Z,99808.59
2023-03-07T11:29:34.950Z,99810.72
2023-03-07T11:32:16.231Z,99801.16
2023-03-07T11:34:50.214Z,99815.94
2023-03-07T11:37:27.179Z,99823.03
2023-03-07T11:40:12.922Z,99819.88
2023-03-07T11:42:46.219Z,99805.88
2023-03-07T11:45:28.791Z,99819.19
2023-03-07T11:48:07.301Z,99818.13
2023-03-07T11:50:36.545Z,99817.09
2023-03-07T11:53:22.519Z,99835.56
2023-03-07T11:56:04.457Z,99839.22
2023-03-07T11:58:48.354Z,99833.47
2023-03-07T12:01:26.573Z,99816.00
2023-03-07T12:04:16.991Z,99812.75
2023-03-07T12:06:53.042Z,99792.72
2023-03-07T12:09:29.982Z,99804.47
2023-03-07T12:12:09.691Z,99821.66
2023-03-07T12:14:47.003Z,99823.78
2023-03-07T12:17:28.562Z,99820.25
2023-03-07T12:20:18.952Z,99813.44
2023-03-07T12:23:01.898Z,99805.50
2023-03-07T12:25:34.870Z,99817.31
2023-03-07T12:28:12.255Z,99810.56
2023-03-07T12:31:08.318Z,99808.41
2023-03-07T12:33:53.283Z,99807.19
2023-03-07T12:36:28.935Z,99793.16
2023-03-07T12:39:02.631Z,99794.31
2023-03-07T12:41:45.819Z,99777.81
2023-03-07T12:44:25.819Z,99789.75
2023-03-07T12:47:01.351Z,99796.47
2023-03-07T12:49:47.850Z,99795.81
2023-03-07T12:52:24.230Z,99795.19
2023-03-07T12:54:59.311Z,99801.16
2023-03-07T12:57:32.155Z,99801.06
2023-03-07T13:00:07.080Z,99803.72
2023-03-07T13:02:41.858Z,99807.84
2023-03-07T13:05:19.505Z,99804.03
2023-03-07T13:07:48.624Z,99811.63
2023-03-07T13:10:20.068Z,99803.19
2023-03-07T13:12:48.427Z,99801.25
2023-03-07T13:16:02.383Z,99797.94
2023-03-07T13:18:33.054Z,99787.44
2023-03-07T13:21:15.741Z,99775.88
2023-03-07T13:23:43.615Z,99772.06
2023-03-07T13:26:13.385Z,99765.84
2023-03-07T13:28:46.902Z,99778.09
2023-03-07T13:31:29.087Z,99761.91
2023-03-07T13:34:39.151Z,99758.25
2023-03-07T13:37:50.072Z,99762.47
2023-03-07T13:40:48.816Z,99766.31
2023-03-07T13:43:59.773Z,99760.19
2023-03-07T13:47:02.563Z,99759.97
2023-03-07T13:49:55.776Z,99751.88
2023-03-07T13:52:36.524Z,99762.94
2023-03-07T13:55:15.717Z,99768.59
2023-03-07T13:57:44.671Z,99756.34
2023-03-07T14:00:49.349Z,99752.50
2023-03-07T14:03:27.895Z,99759.25
2023-03-07T14:05:59.546Z,99760.38
2023-03-07T14:08:32.912Z,99748.94
2023-03-07T14:11:01.183Z,99762.38
2023-03-07T14:13:42.488Z,99759.72
2023-03-07T14:16:38.005Z,99759.44
2023-03-07T14:19:16.143Z,99757.38
2023-03-07T14:21:53.832Z,99760.31
2023-03-07T14:24:39.204Z,99763.75
2023-03-07T14:27:13.279Z,99768.84
2023-03-07T14:29:51.928Z,99760.69
2023-03-07T14:32:23.270Z,99766.69
2023-03-07T14:34:53.116Z,99751.59
2023-03-07T14:37:26.417Z,99758.56
2023-03-07T14:40:26.278Z,99765.69
2023-03-07T14:43:03.305Z,99755.44
2023-03-07T14:45:43.701Z,99742.72
2023-03-07T14:48:35.492Z,99730.63
2023-03-07T14:51:12.004Z,99732.75
2023-03-07T14:53:42.867Z,99727.66
2023-03-07T14:56:12.128Z,99736.13
2023-03-07T14:58:49.087Z,99726.44
2023-03-07T15:01:19.649Z,99716.59
2023-03-07T15:03:49.323Z,99718.03
2023-03-07T15:06:19.981Z,99717.94
2023-03-07T15:08:51.132Z,99718.97
2023-03-07T15:11:27.266Z,99723.19
2023-03-07T15:13:57.615Z,99719.75
2023-03-07T15:16:30.529Z,99726.09
2023-03-07T15:19:03.561Z,99736.69
2023-03-07T15:21:36.679Z,99733.50
2023-03-07T15:24:06.071Z,99732.31
2023-03-07T15:26:34.016Z,99727.03
2023-03-07T15:29:03.683Z,99721.03
2023-03-07T15:31:32.965Z,99712.91
2023-03-07T15:34:21.606Z,99715.81
2023-03-07T15:36:49.400Z,99710.34
2023-03-07T15:39:31.206Z,99698.31
2023-03-07T15:42:04.162Z,99691.91
2023-03-07T15:44:33.026Z,99691.94
2023-03-07T15:47:07.013Z,99689.06
2023-03-07T15:49:41.709Z,99686.81
2023-03-07T15:52:21.284Z,99689.22
2023-03-07T15:54:52.911Z,99692.78
2023-03-07T15:57:23.132Z,99698.28
2023-03-07T15:59:55.068Z,99684.63
2023-03-07T16:02:42.108Z,99687.38
2023-03-07T16:05:33.756Z,99679.44
2023-03-07T16:08:01.672Z,99678.28
2023-03-07T16:10:32.918Z,99675.38
2023-03-07T16:13:03.048Z,99674.75
2023-03-07T16:15:31.055Z,99670.91
2023-03-07T16:17:58.905Z,99663.78
2023-03-07T16:20:28.472Z,99655.69
2023-03-07T16:22:56.817Z,99656.50
2023-03-07T16:25:27.515Z,99655.44
2023-03-07T16:27:59.732Z,99657.75
2023-03-07T16:30:29.376Z,99661.78
2023-03-07T16:32:57.380Z,99654.09
2023-03-07T16:35:26.843Z,99653.41
2023-03-07T16:37:55.651Z,99668.19
2023-03-07T16:40:25.968Z,99662.78
2023-03-07T16:42:54.766Z,99663.75
2023-03-07T16:45:26.945Z,99665.81
2023-03-07T16:47:56.418Z,99658.97
2023-03-07T16:50:26.566Z,99652.81
2023-03-07T16:52:54.547Z,99661.34
2023-03-07T16:55:23.298Z,99649.06
2023-03-07T16:57:54.621Z,99649.94
2023-03-07T17:00:26.688Z,99661.25
2023-03-07T17:02:56.220Z,99670.00
2023-03-07T17:05:26.426Z,99674.88
2023-03-07T17:07:54.823Z,99668.47
2023-03-07T17:10:23.657Z,99661.41
2023-03-07T17:12:53.569Z,99654.38
2023-03-07T17:15:30.330Z,99657.13
2023-03-07T17:17:58.528Z,99648.00
2023-03-07T17:20:26.522Z,99640.84
2023-03-07T17:22:54.648Z,99637.88
2023-03-07T17:25:23.550Z,99636.91
2023-03-07T17:27:56.104Z,99638.31
2023-03-07T17:30:27.069Z,99639.00
2023-03-07T17:32:54.995Z,99638.72
2023-03-07T17:35:23.112Z,99633.63
2023-03-07T17:37:52.845Z,99631.50
2023-03-07T17:40:21.435Z,99639.44
2023-03-07T17:42:51.024Z,99638.34
2023-03-07T17:45:19.783Z,99634.16
2023-03-07T17:47:53.905Z,99623.63
2023-03-07T17:50:24.595Z,99622.34
2023-03-07T17:52:53.060Z,99617.44
2023-03-07T17:55:21.414Z,99613.47
2023-03-07T17:57:49.162Z,99621.09
2023-03-07T18:00:19.711Z,99620.53
2023-03-07T18:02:48.497Z,99624.59
2023-03-07T18:05:19.020Z,99624.19
2023-03-07T18:07:46.957Z,99611.97
2023-03-07T18:10:14.731Z,99614.00
2023-03-07T18:12:42.482Z,99614.28
2023-03-07T18:15:13.939Z,99604.47
2023-03-07T18:17:48.154Z,99604.91
2023-03-07T18:20:19.228Z,99592.25
2023-03-07T18:22:47.183Z,99598.50
2023-03-07T18:25:17.037Z,99607.16
2023-03-07T18:27:44.917Z,99599.19
2023-03-07T18:30:13.963Z,99592.28
2023-03-07T18:32:41.813Z,99587.03
2023-03-07T18:35:10.391Z,99588.31
2023-03-07T18:37:39.571Z,99586.31
2023-03-07T18:40:09.065Z,99582.66
2023-03-07T18:42:36.830Z,99581.13
2023-03-07T18:45:04.740Z,99578.78
2023-03-07T18:47:32.434Z,99577.25
2023-03-07T18:50:00.222Z,99580.84
2023-03-07T18:52:27.930Z,99581.88
2023-03-07T18:54:56.990Z,99579.13
2023-03-07T18:57:24.735Z,99574.38
2023-03-07T18:59:52.471Z,99571.22
2023-03-07T19:02:20.235Z,99563.41
2023-03-07T19:04:48.005Z,99565.31
2023-03-07T19:07:15.731Z,99566.31
2023-03-07T19:09:45.351Z,99564.38
2023-03-07T19:12:15.122Z,99558.13
2023-03-07T19:14:43.060Z,99557.91
2023-03-07T19:17:10.796Z,99539.47
2023-03-07T19:19:38.579Z,99552.22
2023-03-07T19:22:07.780Z,99542.84
2023-03-07T19:24:35.577Z,99545.03
2023-03-07T19:27:03.256Z,99549.69
2023-03-07T19:29:32.607Z,99543.78
2023-03-07T19:32:00.388Z,99547.88
2023-03-07T19:34:28.197Z,99543.66
2023-03-07T19:36:55.952Z,99533.53
2023-03-07T19:39:23.864Z,99531.00
2023-03-07T19:41:51.685Z,99521.94
2023-03-07T19:44:19.438Z,99525.66
2023-03-07T19:46:48.511Z,99518.00
2023-03-07T19:49:17.623Z,99512.81
2023-03-07T19:51:45.602Z,99512.19
2023-03-07T19:54:14.415Z,99506.28
2023-03-07T19:56:42.572Z,99506.16
2023-03-07T19:59:10.487Z,99500.66
2023-03-07T20:01:38.671Z,99505.63
2023-03-07T20:04:08.000Z,99499.19
2023-03-07T20:06:36.041Z,99497.25
2023-03-07T20:09:03.902Z,99491.03
2023-03-07T20:11:33.076Z,99489.72
2023-03-07T20:14:03.444Z,99486.56
2023-03-07T20:16:32.227Z,99491.19
2023-03-07T20:19:01.850Z,99481.97
2023-03-07T20:21:31.932Z,99482.94
2023-03-07T20:24:00.292Z,99482.94
2023-03-07T20:26:31.515Z,99482.78
2023-03-07T20:29:00.155Z,99475.88
2023-03-07T20:31:29.123Z,99479.03
2023-03-07T20:33:59.735Z,99470.47
2023-03-07T20:36:30.817Z,99467.81
2023-03-07T20:39:00.295Z,99460.41
2023-03-07T20:41:29.578Z,99453.38
2023-03-07T20:43:59.927Z,99455.59
2023-03-07T20:46:28.152Z,99446.94
2023-03-07T20:48:56.542Z,99442.50
2023-03-07T20:51:27.337Z,99425.31
2023-03-07T20:53:59.025Z,99430.00
2023-03-07T20:56:28.525Z,99419.22
2023-03-07T20:58:57.615Z,99422.84
2023-03-07T21:01:27.252Z,99424.25
2023-03-07T21:03:55.213Z,99414.16
2023-03-07T21:06:23.110Z,99418.19
2023-03-07T21:08:50.818Z,99408.69
2023-03-07T21:11:21.721Z,99405.56
2023-03-07T21:13:50.372Z,99394.09
2023-03-07T21:16:20.304Z,99382.00
2023-03-07T21:18:48.697Z,99394.94
2023-03-07T21:21:18.156Z,99380.63
2023-03-07T21:23:46.388Z,99378.97
2023-03-07T21:26:15.852Z,99388.69
2023-03-07T21:28:45.243Z,99384.63
2023-03-07T21:31:18.014Z,99375.78
2023-03-07T21:33:47.633Z,99367.97
2023-03-07T21:36:16.412Z,99361.19
2023-03-07T21:38:45.828Z,99355.22
2023-03-07T21:41:14.318Z,99354.47
2023-03-07T21:43:42.199Z,99356.63
2023-03-07T21:46:13.951Z,99344.78
2023-03-07T21:48:42.906Z,99338.78
2023-03-07T21:51:11.050Z,99337.84
2023-03-07T21:53:38.982Z,99329.31
2023-03-07T21:56:08.778Z,99321.41
2023-03-07T21:58:37.901Z,99309.50
2023-03-07T22:01:12.972Z,99312.78
2023-03-07T22:03:41.833Z,99295.72
2023-03-07T22:06:10.958Z,99304.91
2023-03-07T22:08:39.317Z,99308.00
2023-03-07T22:11:08.959Z,99298.19
2023-03-07T22:13:38.389Z,99302.75
2023-03-07T22:16:08.648Z,99285.81
2023-03-07T22:18:37.758Z,99282.31
2023-03-07T22:21:09.856Z,99271.22
2023-03-07T22:23:38.047Z,99270.22
2023-03-07T22:26:07.760Z,99268.13
2023-03-07T22:28:36.174Z,99258.06
2023-03-07T22:31:05.049Z,99261.47
2023-03-07T22:33:33.080Z,99263.06
2023-03-07T22:36:05.195Z,99252.88
2023-03-07T22:38:33.099Z,99258.72
2023-03-07T22:41:04.938Z,99250.81
2023-03-07T22:43:33.424Z,99247.50
2023-03-07T22:46:01.565Z,99237.94
2023-03-07T22:48:30.111Z,99235.91
2023-03-07T22:50:58.647Z,99239.13
2023-03-07T22:53:31.092Z,99231.38
2023-03-07T22:56:00.176Z,99217.19
2023-03-07T22:58:28.906Z,99218.09
2023-03-07T23:00:56.819Z,99201.91
2023-03-07T23:03:24.671Z,99199.44
2023-03-07T23:05:52.528Z,99188.47
2023-03-07T23:08:20.511Z,99178.34
2023-03-07T23:10:49.654Z,99171.00
2023-03-07T23:13:17.417Z,99163.59
2023-03-07T23:15:45.375Z,99157.03
2023-03-07T23:18:13.159Z,99149.53
2023-03-07T23:20:40.919Z,99142.81
2023-03-07T23:23:08.697Z,99136.09
2023-03-07T23:25:41.135Z,99127.72
2023-03-07T23:28:10.754Z,99107.41
2023-03-07T23:30:39.605Z,99092.31
2023-03-07T23:33:08.032Z,99075.22
2023-03-07T23:35:36.847Z,99067.50
2023-03-07T23:38:05.510Z,99054.75
2023-03-07T23:40:33.785Z,99041.19
2023-03-07T23:43:02.145Z,99028.72
2023-03-07T23:45:31.243Z,99016.81
2023-03-07T23:47:59.200Z,99009.84
2023-03-07T23:50:26.943Z,98995.25
2023-03-07T23:52:54.695Z,98992.25
2023-03-07T23:55:22.482Z,98991.91
2023-03-07T23:57:50.180Z,98985.81
